Time;durP1;ratioP1;P1;durP2;ratioP2;P2;SDS_P1;SDS_P2;PMS_P1;PMS_P2;Temp;Humidity;BMP_temperature;BMP_pressure;BME280_temperature;BME280_humidity;BME280_pressure;Samples;Min_cycle;Max_cycle;Signal;HPM_P1;HPM_P2
2021/11/25 00:02:11;;;;;;;53.45;31.88;;;;;;;;;;5124395;28;20099;-63
2021/11/25 00:04:38;;;;;;;53.22;31.52;;;;;;;;;;5106604;28;20050;-63
2021/11/25 00:07:04;;;;;;;44.40;26.10;;;;;;;;;;5126357;28;20043;-63
2021/11/25 00:09:30;;;;;;;51.10;29.20;;;;;;;;;;5131416;28;20047;-63
2021/11/25 00:11:56;;;;;;;52.88;30.60;;;;;;;;;;5131012;28;20035;-63
2021/11/25 00:14:22;;;;;;;48.20;28.00;;;;;;;;;;5130322;28;20079;-63
2021/11/25 00:16:49;;;;;;;48.38;28.15;;;;;;;;;;5131268;28;20040;-63
2021/11/25 00:19:15;;;;;;;50.42;27.35;;;;;;;;;;5130266;28;20491;-63
2021/11/25 00:21:42;;;;;;;50.17;28.17;;;;;;;;;;5131445;28;20055;-63
2021/11/25 00:24:08;;;;;;;50.95;29.98;;;;;;;;;;5117247;28;20051;-63
2021/11/25 00:26:35;;;;;;;49.28;27.92;;;;;;;;;;5123047;28;20131;-63
2021/11/25 00:29:02;;;;;;;51.95;29.40;;;;;;;;;;5110546;28;20048;-63
2021/11/25 00:31:28;;;;;;;54.10;31.50;;;;;;;;;;5128573;28;20110;-63
2021/11/25 00:33:54;;;;;;;48.42;27.58;;;;;;;;;;5130557;28;20036;-64
2021/11/25 00:36:20;;;;;;;57.47;30.83;;;;;;;;;;5130811;28;20044;-63
2021/11/25 00:38:46;;;;;;;51.28;29.42;;;;;;;;;;5117366;28;20075;-63
2021/11/25 00:41:13;;;;;;;54.50;30.63;;;;;;;;;;5130237;28;20043;-63
2021/11/25 00:43:39;;;;;;;49.08;30.23;;;;;;;;;;5125797;28;20043;-63
2021/11/25 00:46:05;;;;;;;54.80;30.67;;;;;;;;;;5121109;28;20062;-63
2021/11/25 00:48:31;;;;;;;54.85;30.27;;;;;;;;;;5131184;28;20046;-63
2021/11/25 00:50:58;;;;;;;58.08;31.67;;;;;;;;;;5121658;28;20050;-63
2021/11/25 00:53:24;;;;;;;53.38;29.77;;;;;;;;;;5125702;28;20054;-63
2021/11/25 00:55:50;;;;;;;55.67;30.23;;;;;;;;;;5112396;28;20051;-63
2021/11/25 00:58:17;;;;;;;61.38;35.05;;;;;;;;;;5104825;28;20434;-63
2021/11/25 01:00:44;;;;;;;56.65;32.20;;;;;;;;;;5130763;28;20035;-63
2021/11/25 01:03:10;;;;;;;57.75;31.42;;;;;;;;;;5131109;28;20075;-63
2021/11/25 01:05:36;;;;;;;50.58;28.83;;;;;;;;;;5130738;28;20063;-64
2021/11/25 01:08:03;;;;;;;58.67;31.38;;;;;;;;;;5122367;28;20044;-64
2021/11/25 01:10:29;;;;;;;64.50;34.13;;;;;;;;;;5123718;28;20138;-63
2021/11/25 01:12:56;;;;;;;54.58;29.88;;;;;;;;;;5119755;28;20066;-63
2021/11/25 01:15:29;;;;;;;56.92;31.23;;;;;;;;;;5117183;28;20124;-63
2021/11/25 01:18:00;;;;;;;60.05;31.20;;;;;;;;;;5116552;28;20070;-63
2021/11/25 01:20:26;;;;;;;59.25;31.55;;;;;;;;;;5121384;28;20050;-63
2021/11/25 01:22:52;;;;;;;61.70;31.88;;;;;;;;;;5117701;28;20047;-63
2021/11/25 01:25:18;;;;;;;59.63;32.22;;;;;;;;;;5125725;28;20043;-63
2021/11/25 01:27:44;;;;;;;65.65;32.95;;;;;;;;;;5112985;28;20609;-63
2021/11/25 01:30:11;;;;;;;64.60;34.50;;;;;;;;;;5115916;28;20048;-64
2021/11/25 01:32:37;;;;;;;65.93;36.28;;;;;;;;;;5117598;28;20036;-64
2021/11/25 01:35:04;;;;;;;65.22;34.53;;;;;;;;;;5121046;28;20047;-63
2021/11/25 01:37:30;;;;;;;71.72;35.47;;;;;;;;;;5116531;28;20094;-63
2021/11/25 01:39:56;;;;;;;67.82;32.78;;;;;;;;;;5088981;28;20566;-63
2021/11/25 01:42:23;;;;;;;75.97;36.25;;;;;;;;;;5110728;28;20048;-63
2021/11/25 01:44:50;;;;;;;69.60;34.05;;;;;;;;;;5112768;28;20040;-63
2021/11/25 01:47:16;;;;;;;72.18;35.85;;;;;;;;;;5109757;28;20070;-63
2021/11/25 01:49:42;;;;;;;80.55;37.30;;;;;;;;;;5126280;28;20054;-63
2021/11/25 01:52:08;;;;;;;80.50;39.58;;;;;;;;;;5106185;28;20039;-63
2021/11/25 01:54:34;;;;;;;83.03;37.15;;;;;;;;;;5117158;28;20051;-63
2021/11/25 01:57:00;;;;;;;89.50;39.25;;;;;;;;;;5118397;28;20130;-64
2021/11/25 01:59:27;;;;;;;85.10;37.03;;;;;;;;;;5123371;28;20122;-64
2021/11/25 02:01:53;;;;;;;92.38;41.95;;;;;;;;;;5106601;28;20059;-64
2021/11/25 02:04:19;;;;;;;88.65;35.92;;;;;;;;;;5126764;28;20054;-64
2021/11/25 02:06:45;;;;;;;85.97;37.58;;;;;;;;;;5126775;28;20057;-64
2021/11/25 02:09:12;;;;;;;81.43;36.70;;;;;;;;;;5116152;28;20043;-64
2021/11/25 02:11:39;;;;;;;88.70;38.40;;;;;;;;;;5114758;28;20050;-64
2021/11/25 02:14:05;;;;;;;97.05;38.78;;;;;;;;;;5106136;28;20081;-64
2021/11/25 02:16:31;;;;;;;90.70;38.83;;;;;;;;;;5115131;28;20131;-64
2021/11/25 02:18:58;;;;;;;94.22;40.30;;;;;;;;;;5111163;28;20567;-64
2021/11/25 02:21:25;;;;;;;85.82;36.00;;;;;;;;;;5125675;28;20476;-64
2021/11/25 02:23:51;;;;;;;87.13;35.85;;;;;;;;;;5119458;28;20123;-64
2021/11/25 02:26:17;;;;;;;93.45;38.10;;;;;;;;;;5119317;28;20119;-64
2021/11/25 02:28:43;;;;;;;96.50;39.20;;;;;;;;;;5100074;28;20130;-64
2021/11/25 02:31:09;;;;;;;89.95;38.55;;;;;;;;;;5125458;28;20038;-64
2021/11/25 02:33:39;;;;;;;89.68;38.05;;;;;;;;;;5116535;28;20131;-64
2021/11/25 02:36:06;;;;;;;95.72;39.53;;;;;;;;;;5122071;28;20099;-64
2021/11/25 02:38:32;;;;;;;101.32;38.50;;;;;;;;;;5123088;28;20175;-64
2021/11/25 02:40:59;;;;;;;99.18;38.88;;;;;;;;;;5124458;28;20040;-64
2021/11/25 02:43:27;;;;;;;96.97;39.35;;;;;;;;;;5125798;28;20056;-65
2021/11/25 02:46:01;;;;;;;95.07;40.70;;;;;;;;;;5125847;28;20043;-64
2021/11/25 02:48:47;;;;;;;85.72;34.05;;;;;;;;;;5119677;28;20043;-65
2021/11/25 02:51:18;;;;;;;77.90;32.92;;;;;;;;;;5116126;28;20043;-65
2021/11/25 02:53:45;;;;;;;83.82;35.55;;;;;;;;;;5100185;28;20122;-65
2021/11/25 02:56:12;;;;;;;89.85;37.35;;;;;;;;;;5094348;28;20045;-64
2021/11/25 02:58:38;;;;;;;85.93;37.35;;;;;;;;;;5101002;28;20067;-64
2021/11/25 03:01:07;;;;;;;96.07;38.35;;;;;;;;;;5103189;28;20157;-64
2021/11/25 03:03:33;;;;;;;92.18;40.00;;;;;;;;;;5088099;28;20055;-64
2021/11/25 03:06:00;;;;;;;93.15;38.05;;;;;;;;;;5090030;28;20048;-64
2021/11/25 03:08:26;;;;;;;90.55;38.33;;;;;;;;;;5090418;28;20055;-64
2021/11/25 03:10:59;;;;;;;102.18;40.05;;;;;;;;;;5096607;28;20052;-65
2021/11/25 03:13:25;;;;;;;83.05;34.60;;;;;;;;;;5104185;28;20130;-65
2021/11/25 03:15:52;;;;;;;97.60;38.55;;;;;;;;;;5100600;28;20067;-64
2021/11/25 03:18:18;;;;;;;110.35;41.78;;;;;;;;;;5093058;28;20074;-65
2021/11/25 03:20:47;;;;;;;99.97;38.85;;;;;;;;;;5084346;28;20093;-64
2021/11/25 03:23:14;;;;;;;102.32;38.28;;;;;;;;;;5103883;28;20130;-64
2021/11/25 03:25:41;;;;;;;92.68;38.10;;;;;;;;;;5101967;28;20556;-64
2021/11/25 03:28:07;;;;;;;103.00;39.05;;;;;;;;;;5097391;28;20119;-64
2021/11/25 03:30:34;;;;;;;109.70;40.35;;;;;;;;;;5091898;28;20049;-64
2021/11/25 03:33:01;;;;;;;87.63;36.20;;;;;;;;;;5103233;28;20096;-64
2021/11/25 03:35:27;;;;;;;107.15;40.33;;;;;;;;;;5102856;28;20304;-65
2021/11/25 03:37:53;;;;;;;113.75;41.38;;;;;;;;;;5091213;28;20100;-65
2021/11/25 03:40:19;;;;;;;110.70;42.83;;;;;;;;;;5100329;28;20050;-65
2021/11/25 03:42:45;;;;;;;112.53;42.58;;;;;;;;;;5102481;28;20114;-65
2021/11/25 03:45:11;;;;;;;117.47;41.55;;;;;;;;;;5100119;28;20616;-65
2021/11/25 03:47:40;;;;;;;114.65;42.35;;;;;;;;;;5099723;28;20139;-65
2021/11/25 03:50:06;;;;;;;112.45;43.30;;;;;;;;;;5096766;28;20059;-65
2021/11/25 03:52:33;;;;;;;115.78;41.25;;;;;;;;;;5100575;28;20043;-65
2021/11/25 03:54:59;;;;;;;115.82;44.20;;;;;;;;;;5092259;28;20056;-65
2021/11/25 03:57:25;;;;;;;112.25;42.15;;;;;;;;;;5104169;28;20048;-65
2021/11/25 03:59:52;;;;;;;119.82;43.47;;;;;;;;;;5113905;28;20475;-65
2021/11/25 04:02:19;;;;;;;115.57;42.17;;;;;;;;;;5123416;28;20055;-65
2021/11/25 04:04:45;;;;;;;131.73;43.40;;;;;;;;;;5086433;28;20052;-66
2021/11/25 04:07:12;;;;;;;113.05;39.95;;;;;;;;;;5090651;28;20098;-65
2021/11/25 04:09:38;;;;;;;112.90;41.40;;;;;;;;;;5114261;28;20079;-65
2021/11/25 04:12:04;;;;;;;127.93;44.40;;;;;;;;;;5094946;28;20051;-65
2021/11/25 04:14:30;;;;;;;125.68;44.00;;;;;;;;;;5123686;28;20086;-65
2021/11/25 04:16:58;;;;;;;129.77;45.92;;;;;;;;;;5118400;28;20368;-65
2021/11/25 04:19:24;;;;;;;122.82;45.13;;;;;;;;;;5114116;28;20507;-65
2021/11/25 04:21:50;;;;;;;127.03;43.05;;;;;;;;;;5123620;28;20040;-66
2021/11/25 04:24:16;;;;;;;136.13;47.47;;;;;;;;;;5124451;28;20103;-65
2021/11/25 04:26:43;;;;;;;120.70;43.72;;;;;;;;;;5123698;28;20123;-65
2021/11/25 04:29:10;;;;;;;130.85;45.88;;;;;;;;;;5123460;28;20062;-66
2021/11/25 04:37:06;;;;;;;116.18;42.33;;;;;;;;;;5105860;28;20357;-65
2021/11/25 04:39:32;;;;;;;138.88;47.83;;;;;;;;;;5105736;28;20132;-65
2021/11/25 04:41:58;;;;;;;127.00;45.45;;;;;;;;;;5103349;28;20083;-65
2021/11/25 04:44:24;;;;;;;123.80;44.55;;;;;;;;;;5119600;28;20039;-66
2021/11/25 04:46:50;;;;;;;144.45;47.97;;;;;;;;;;5124718;28;20083;-65
2021/11/25 04:49:16;;;;;;;139.55;44.85;;;;;;;;;;5102767;28;20044;-64
2021/11/25 04:51:42;;;;;;;138.27;45.60;;;;;;;;;;5118009;28;20453;-65
2021/11/25 04:54:09;;;;;;;125.20;45.80;;;;;;;;;;5121985;28;20083;-65
2021/11/25 04:56:35;;;;;;;131.90;46.13;;;;;;;;;;5126973;28;20160;-65
2021/11/25 04:59:01;;;;;;;126.55;45.60;;;;;;;;;;5127528;28;20055;-65
2021/11/25 05:01:27;;;;;;;129.63;46.10;;;;;;;;;;5127606;28;20044;-65
2021/11/25 05:03:54;;;;;;;135.73;45.35;;;;;;;;;;5127804;28;20039;-65
2021/11/25 05:06:20;;;;;;;138.82;47.88;;;;;;;;;;5127941;28;20131;-65
2021/11/25 05:08:46;;;;;;;138.10;48.38;;;;;;;;;;5117150;28;20099;-65
2021/11/25 05:11:13;;;;;;;128.85;47.35;;;;;;;;;;5115434;28;20127;-65
2021/11/25 05:13:40;;;;;;;118.10;44.83;;;;;;;;;;5126823;28;20063;-65
2021/11/25 05:16:06;;;;;;;135.98;45.95;;;;;;;;;;5105895;28;20044;-65
2021/11/25 05:18:32;;;;;;;137.45;47.38;;;;;;;;;;5113379;28;20044;-65
2021/11/25 05:20:59;;;;;;;131.95;46.22;;;;;;;;;;5093814;28;20055;-66
2021/11/25 05:23:25;;;;;;;125.03;43.92;;;;;;;;;;5119247;28;20052;-65
2021/11/25 05:25:53;;;;;;;144.25;50.08;;;;;;;;;;5107507;28;20557;-65
2021/11/25 05:28:19;;;;;;;148.18;48.80;;;;;;;;;;5114301;28;20052;-65
2021/11/25 05:30:45;;;;;;;126.22;43.05;;;;;;;;;;5103813;28;20043;-65
2021/11/25 05:33:11;;;;;;;142.98;47.45;;;;;;;;;;5117610;28;20099;-65
2021/11/25 05:35:37;;;;;;;135.57;44.92;;;;;;;;;;5116236;28;20040;-65
2021/11/25 05:38:04;;;;;;;133.52;48.47;;;;;;;;;;5121622;28;20092;-65
2021/11/25 05:40:30;;;;;;;141.27;48.65;;;;;;;;;;5101226;28;20087;-65
2021/11/25 05:42:56;;;;;;;133.20;45.70;;;;;;;;;;5098427;28;20039;-65
2021/11/25 05:45:23;;;;;;;137.65;46.42;;;;;;;;;;5114813;28;20051;-65
2021/11/25 05:47:49;;;;;;;131.88;49.42;;;;;;;;;;5117593;28;20071;-65
2021/11/25 05:50:20;;;;;;;132.90;44.80;;;;;;;;;;5112272;28;20099;-65
2021/11/25 05:52:46;;;;;;;147.02;50.58;;;;;;;;;;5120827;28;20058;-65
2021/11/25 05:55:13;;;;;;;141.85;49.33;;;;;;;;;;5116144;28;20047;-65
2021/11/25 05:57:39;;;;;;;147.93;50.10;;;;;;;;;;5100902;28;20071;-65
2021/11/25 06:00:06;;;;;;;114.78;41.95;;;;;;;;;;5120447;28;20394;-65
2021/11/25 06:02:32;;;;;;;148.88;48.95;;;;;;;;;;5116632;28;20093;-65
2021/11/25 06:04:58;;;;;;;159.45;53.28;;;;;;;;;;5121351;28;20118;-65
2021/11/25 06:07:24;;;;;;;148.48;50.58;;;;;;;;;;5120194;28;20054;-65
2021/11/25 06:09:51;;;;;;;127.00;43.67;;;;;;;;;;5126167;28;20074;-65
2021/11/25 06:12:17;;;;;;;143.02;50.97;;;;;;;;;;5111067;28;20062;-65
2021/11/25 06:14:43;;;;;;;126.35;44.15;;;;;;;;;;5115116;28;20044;-65
2021/11/25 06:17:09;;;;;;;146.15;47.05;;;;;;;;;;5125356;28;20108;-65
2021/11/25 06:19:35;;;;;;;162.57;51.78;;;;;;;;;;5116560;28;20503;-65
2021/11/25 06:22:01;;;;;;;167.05;53.63;;;;;;;;;;5112320;28;20117;-65
2021/11/25 06:24:27;;;;;;;152.82;50.97;;;;;;;;;;5113848;28;20039;-65
2021/11/25 06:26:54;;;;;;;165.13;52.20;;;;;;;;;;5122590;28;20115;-66
2021/11/25 06:29:20;;;;;;;159.15;53.60;;;;;;;;;;5119414;28;20095;-65
2021/11/25 06:31:46;;;;;;;178.13;54.47;;;;;;;;;;5125684;28;20063;-65
2021/11/25 06:34:12;;;;;;;177.23;55.60;;;;;;;;;;5121423;28;20124;-64
2021/11/25 06:36:39;;;;;;;175.65;55.40;;;;;;;;;;5103055;28;20103;-65
2021/11/25 06:39:05;;;;;;;163.93;52.05;;;;;;;;;;5125829;28;20080;-65
2021/11/25 06:41:31;;;;;;;143.07;47.83;;;;;;;;;;5103399;28;20135;-65
2021/11/25 06:43:58;;;;;;;180.77;53.65;;;;;;;;;;5120212;28;20136;-65
2021/11/25 06:46:24;;;;;;;183.68;52.45;;;;;;;;;;5117705;28;20123;-64
2021/11/25 06:48:50;;;;;;;157.73;52.20;;;;;;;;;;5117702;28;20209;-64
2021/11/25 06:51:16;;;;;;;176.85;52.97;;;;;;;;;;5120389;28;20050;-65
2021/11/25 06:53:43;;;;;;;181.95;55.03;;;;;;;;;;5108582;28;20078;-64
2021/11/25 06:56:09;;;;;;;156.77;50.70;;;;;;;;;;5121943;28;20052;-65
2021/11/25 06:58:35;;;;;;;174.02;53.10;;;;;;;;;;5110522;28;20096;-65
2021/11/25 07:01:03;;;;;;;208.80;59.50;;;;;;;;;;5124384;28;20047;-64
2021/11/25 07:03:32;;;;;;;174.80;54.65;;;;;;;;;;5123157;28;20042;-65
2021/11/25 07:05:58;;;;;;;178.10;56.42;;;;;;;;;;5106340;28;20076;-64
2021/11/25 07:08:24;;;;;;;183.73;53.75;;;;;;;;;;5116008;28;20054;-65
2021/11/25 07:10:50;;;;;;;194.80;57.58;;;;;;;;;;5111657;28;20066;-64
2021/11/25 07:13:16;;;;;;;190.60;57.85;;;;;;;;;;5117519;28;20085;-65
2021/11/25 07:15:42;;;;;;;201.00;57.85;;;;;;;;;;5120752;28;20110;-65
2021/11/25 07:18:08;;;;;;;200.07;58.47;;;;;;;;;;5124169;28;20078;-65
2021/11/25 07:20:34;;;;;;;202.75;56.70;;;;;;;;;;5114879;28;20107;-65
2021/11/25 07:23:01;;;;;;;189.40;55.28;;;;;;;;;;5092885;28;20095;-66
2021/11/25 07:25:27;;;;;;;202.52;60.03;;;;;;;;;;5104530;28;20052;-66
2021/11/25 07:27:53;;;;;;;209.82;60.75;;;;;;;;;;5092137;28;20511;-66
2021/11/25 07:30:20;;;;;;;210.43;58.90;;;;;;;;;;5118524;28;20044;-64
2021/11/25 07:32:47;;;;;;;200.13;59.03;;;;;;;;;;5114618;28;20078;-65
2021/11/25 07:35:13;;;;;;;192.40;57.88;;;;;;;;;;5124346;28;20054;-65
2021/11/25 07:37:40;;;;;;;214.88;60.38;;;;;;;;;;5122126;28;20039;-65
2021/11/25 07:40:07;;;;;;;202.05;62.65;;;;;;;;;;5123646;28;20163;-65
2021/11/25 07:42:33;;;;;;;176.57;53.72;;;;;;;;;;5117218;28;20036;-65
2021/11/25 07:45:00;;;;;;;222.85;60.15;;;;;;;;;;5121586;28;20047;-65
2021/11/25 07:47:33;;;;;;;199.75;63.75;;;;;;;;;;5119858;28;20040;-65
2021/11/25 07:50:01;;;;;;;192.80;59.22;;;;;;;;;;5124708;28;20127;-65
2021/11/25 07:52:27;;;;;;;197.18;60.42;;;;;;;;;;5122478;28;20059;-66
2021/11/25 07:54:53;;;;;;;182.13;58.45;;;;;;;;;;5116396;28;20070;-65
2021/11/25 07:57:19;;;;;;;208.65;58.72;;;;;;;;;;5118308;28;20096;-65
2021/11/25 07:59:45;;;;;;;182.65;56.17;;;;;;;;;;5114195;28;20039;-65
2021/11/25 08:02:12;;;;;;;168.68;54.03;;;;;;;;;;5097189;28;20083;-66
2021/11/25 08:04:38;;;;;;;177.20;52.15;;;;;;;;;;5112519;28;20181;-65
2021/11/25 08:07:04;;;;;;;174.82;55.22;;;;;;;;;;5101255;28;20079;-65
2021/11/25 08:09:30;;;;;;;179.98;54.95;;;;;;;;;;5115389;28;20044;-66
2021/11/25 08:11:56;;;;;;;172.00;56.45;;;;;;;;;;5119535;28;20051;-65
2021/11/25 08:14:22;;;;;;;170.00;53.63;;;;;;;;;;5106055;28;20044;-65
2021/11/25 08:16:49;;;;;;;176.13;56.28;;;;;;;;;;5122862;28;20048;-64
2021/11/25 08:19:15;;;;;;;185.98;55.78;;;;;;;;;;5124453;28;20523;-66
2021/11/25 08:21:41;;;;;;;201.07;56.00;;;;;;;;;;5124366;28;20134;-64
2021/11/25 08:24:07;;;;;;;184.10;54.42;;;;;;;;;;5121183;28;20103;-64
2021/11/25 08:26:33;;;;;;;158.82;50.60;;;;;;;;;;5115764;28;20460;-64
2021/11/25 08:28:59;;;;;;;207.57;57.13;;;;;;;;;;5109963;28;20079;-64
2021/11/25 08:31:25;;;;;;;217.13;58.85;;;;;;;;;;5101744;28;20099;-65
2021/11/25 08:33:51;;;;;;;200.10;61.42;;;;;;;;;;5102849;28;20104;-64
2021/11/25 08:36:18;;;;;;;207.80;58.60;;;;;;;;;;5127153;28;20039;-65
2021/11/25 08:38:44;;;;;;;201.32;59.03;;;;;;;;;;5122330;28;20036;-66
2021/11/25 08:41:10;;;;;;;196.05;56.20;;;;;;;;;;5121377;28;20079;-66
2021/11/25 08:43:36;;;;;;;185.07;55.40;;;;;;;;;;5107715;28;20145;-66
2021/11/25 08:46:02;;;;;;;186.25;56.67;;;;;;;;;;5121507;28;20096;-66
2021/11/25 08:48:28;;;;;;;190.15;59.70;;;;;;;;;;5118201;28;20043;-66
2021/11/25 08:50:54;;;;;;;196.35;56.95;;;;;;;;;;5127588;28;20081;-66
2021/11/25 08:53:23;;;;;;;176.65;55.83;;;;;;;;;;5122689;28;20062;-66
2021/11/25 08:55:49;;;;;;;186.05;55.88;;;;;;;;;;5127110;28;20107;-66
2021/11/25 08:58:16;;;;;;;191.50;56.53;;;;;;;;;;5125475;28;20052;-66
2021/11/25 09:00:42;;;;;;;187.38;53.03;;;;;;;;;;5126922;28;20044;-66
2021/11/25 09:03:08;;;;;;;184.57;54.38;;;;;;;;;;5127993;28;20185;-66
2021/11/25 09:05:34;;;;;;;180.23;52.90;;;;;;;;;;5124277;28;20039;-66
2021/11/25 09:08:01;;;;;;;170.43;52.25;;;;;;;;;;5114282;28;20044;-66
2021/11/25 09:10:27;;;;;;;172.98;51.92;;;;;;;;;;5109413;28;20123;-66
2021/11/25 09:12:53;;;;;;;177.50;53.92;;;;;;;;;;5118666;28;20116;-66
2021/11/25 09:15:19;;;;;;;158.85;48.08;;;;;;;;;;5127285;28;20126;-66
2021/11/25 09:17:45;;;;;;;148.60;46.55;;;;;;;;;;5127296;28;20492;-66
2021/11/25 09:20:12;;;;;;;148.25;46.17;;;;;;;;;;5126715;28;20048;-66
2021/11/25 09:22:39;;;;;;;147.30;48.78;;;;;;;;;;5117132;28;20075;-66
2021/11/25 09:25:06;;;;;;;145.30;47.30;;;;;;;;;;5117564;28;20051;-66
2021/11/25 09:27:32;;;;;;;137.45;47.67;;;;;;;;;;5117331;28;20070;-66
2021/11/25 09:29:59;;;;;;;140.70;45.45;;;;;;;;;;5116711;28;20089;-66
2021/11/25 09:32:26;;;;;;;149.70;47.85;;;;;;;;;;5114440;28;20035;-66
2021/11/25 09:34:52;;;;;;;132.80;47.75;;;;;;;;;;5101367;28;20086;-66
2021/11/25 09:37:19;;;;;;;155.68;48.05;;;;;;;;;;5112174;28;20043;-65
2021/11/25 09:39:45;;;;;;;143.15;46.25;;;;;;;;;;5117206;28;20101;-65
2021/11/25 09:42:11;;;;;;;147.35;50.13;;;;;;;;;;5120278;28;20107;-65
2021/11/25 09:44:37;;;;;;;145.45;47.22;;;;;;;;;;5124117;28;20086;-65
2021/11/25 09:47:04;;;;;;;149.43;51.20;;;;;;;;;;5119569;28;20099;-65
2021/11/25 09:49:30;;;;;;;141.10;46.35;;;;;;;;;;5089656;28;20077;-65
2021/11/25 09:51:57;;;;;;;122.40;41.95;;;;;;;;;;5106955;28;20051;-65
2021/11/25 09:54:23;;;;;;;123.75;42.72;;;;;;;;;;5125482;28;20137;-65
2021/11/25 09:56:50;;;;;;;124.55;45.17;;;;;;;;;;5112579;28;20078;-65
2021/11/25 09:59:16;;;;;;;120.25;43.03;;;;;;;;;;5106788;28;20047;-65
2021/11/25 10:01:43;;;;;;;121.53;45.13;;;;;;;;;;5121144;28;20045;-65
2021/11/25 10:04:09;;;;;;;118.95;40.58;;;;;;;;;;5114730;28;20036;-65
2021/11/25 10:06:48;;;;;;;120.15;42.08;;;;;;;;;;5120740;28;20071;-65
2021/11/25 10:09:14;;;;;;;112.35;39.13;;;;;;;;;;5103933;28;20054;-66
2021/11/25 10:11:41;;;;;;;104.80;38.17;;;;;;;;;;5111673;28;20063;-65
2021/11/25 10:14:08;;;;;;;80.25;31.48;;;;;;;;;;5119190;28;20067;-64
2021/11/25 10:16:37;;;;;;;87.20;33.25;;;;;;;;;;5105884;28;20059;-65
2021/11/25 10:19:18;;;;;;;81.93;31.77;;;;;;;;;;5111669;28;20118;-65
2021/11/25 10:21:52;;;;;;;65.88;27.67;;;;;;;;;;5119715;28;20493;-62
2021/11/25 10:24:31;;;;;;;61.33;26.77;;;;;;;;;;5113428;28;20047;-63
2021/11/25 10:27:11;;;;;;;57.70;23.05;;;;;;;;;;5110964;28;20055;-62
2021/11/25 10:29:37;;;;;;;54.17;22.70;;;;;;;;;;5117025;28;20040;-62
2021/11/25 10:32:05;;;;;;;45.35;20.65;;;;;;;;;;5114743;28;20040;-62
2021/11/25 10:34:40;;;;;;;38.65;17.60;;;;;;;;;;5118799;28;20076;-63
2021/11/25 10:37:36;;;;;;;28.30;14.10;;;;;;;;;;5105619;28;20081;-62
2021/11/25 10:40:13;;;;;;;28.58;14.27;;;;;;;;;;5120527;28;20083;-63
2021/11/25 10:42:41;;;;;;;24.08;11.50;;;;;;;;;;5090112;28;20044;-62
2021/11/25 10:45:15;;;;;;;24.15;9.10;;;;;;;;;;5098024;28;20056;-61
2021/11/25 10:47:41;;;;;;;23.58;8.82;;;;;;;;;;5095266;28;20240;-61
2021/11/25 10:50:08;;;;;;;14.77;6.63;;;;;;;;;;5113813;28;20048;-63
2021/11/25 10:52:38;;;;;;;14.52;6.28;;;;;;;;;;5115692;28;20083;-62
2021/11/25 10:55:17;;;;;;;14.52;4.88;;;;;;;;;;5121384;28;20120;-62
2021/11/25 10:57:43;;;;;;;20.45;5.72;;;;;;;;;;5124447;28;20046;-62
2021/11/25 11:00:29;;;;;;;21.90;4.97;;;;;;;;;;5125276;28;20606;-63
2021/11/25 11:03:12;;;;;;;16.83;3.35;;;;;;;;;;5116338;28;20113;-62
2021/11/25 11:05:51;;;;;;;11.18;2.15;;;;;;;;;;5112721;28;20036;-62
2021/11/25 11:08:18;;;;;;;13.98;2.08;;;;;;;;;;5123394;28;20044;-61
2021/11/25 11:10:57;;;;;;;12.30;1.80;;;;;;;;;;5104779;28;20074;-61
2021/11/25 11:18:47;;;;;;;9.93;1.48;;;;;;;;;;5119022;28;20055;-61
2021/11/25 11:21:28;;;;;;;11.10;2.92;;;;;;;;;;5122350;28;20112;-62
2021/11/25 11:23:55;;;;;;;15.73;1.67;;;;;;;;;;5110962;28;20547;-62
2021/11/25 11:26:21;;;;;;;10.85;1.40;;;;;;;;;;5115725;28;20062;-62
2021/11/25 11:28:47;;;;;;;7.47;2.08;;;;;;;;;;5096387;28;20539;-61
2021/11/25 11:31:14;;;;;;;9.88;1.90;;;;;;;;;;5087826;28;20126;-62
2021/11/25 11:33:40;;;;;;;9.43;1.60;;;;;;;;;;5106244;28;20100;-62
2021/11/25 11:36:06;;;;;;;10.00;1.92;;;;;;;;;;5120027;28;20050;-61
2021/11/25 11:38:34;;;;;;;12.52;2.28;;;;;;;;;;5114608;28;20055;-62
2021/11/25 11:41:00;;;;;;;19.33;2.42;;;;;;;;;;5113063;28;20035;-62
2021/11/25 11:43:27;;;;;;;4.93;1.25;;;;;;;;;;5112888;28;20132;-61
2021/11/25 11:45:53;;;;;;;7.50;1.40;;;;;;;;;;5097557;28;20134;-61
2021/11/25 11:48:19;;;;;;;7.93;1.77;;;;;;;;;;5117205;28;20044;-61
2021/11/25 11:50:50;;;;;;;6.85;2.22;;;;;;;;;;5117978;28;20044;-61
2021/11/25 11:53:19;;;;;;;6.22;0.95;;;;;;;;;;5110954;28;20055;-61
2021/11/25 11:55:47;;;;;;;5.35;1.48;;;;;;;;;;5123582;28;20122;-62
2021/11/25 11:58:26;;;;;;;8.45;1.25;;;;;;;;;;5092608;28;20093;-64
2021/11/25 12:00:55;;;;;;;5.63;1.10;;;;;;;;;;5115797;28;20039;-65
2021/11/25 12:03:35;;;;;;;6.30;1.23;;;;;;;;;;5105449;28;20504;-65
2021/11/25 12:06:01;;;;;;;5.78;1.17;;;;;;;;;;5123865;28;20211;-66
2021/11/25 12:08:33;;;;;;;5.47;0.93;;;;;;;;;;5105087;28;20036;-66
2021/11/25 12:10:59;;;;;;;11.13;1.50;;;;;;;;;;5105251;28;20056;-67
2021/11/25 12:13:30;;;;;;;3.78;0.80;;;;;;;;;;5093390;28;20111;-67
2021/11/25 12:16:15;;;;;;;5.70;0.98;;;;;;;;;;5101594;28;20055;-68
2021/11/25 12:18:41;;;;;;;4.80;0.85;;;;;;;;;;5111911;28;20040;-67
2021/11/25 12:21:07;;;;;;;7.03;1.83;;;;;;;;;;5121489;28;20114;-66
2021/11/25 12:23:33;;;;;;;10.35;1.63;;;;;;;;;;5118381;28;20067;-67
2021/11/25 12:26:00;;;;;;;7.35;1.20;;;;;;;;;;5117527;28;20092;-67
2021/11/25 12:28:28;;;;;;;10.48;1.40;;;;;;;;;;5124071;28;20040;-68
2021/11/25 12:30:56;;;;;;;7.00;1.40;;;;;;;;;;5108265;28;20499;-67
2021/11/25 12:33:41;;;;;;;6.78;1.98;;;;;;;;;;5120987;28;20048;-68
2021/11/25 12:36:08;;;;;;;6.45;0.88;;;;;;;;;;5107898;28;20103;-67
2021/11/25 12:38:38;;;;;;;14.65;2.13;;;;;;;;;;5093600;28;20050;-67
2021/11/25 12:41:09;;;;;;;12.95;1.70;;;;;;;;;;5105062;28;20510;-67
2021/11/25 12:43:41;;;;;;;10.75;2.13;;;;;;;;;;5103070;28;20118;-67
2021/11/25 12:46:14;;;;;;;13.57;1.60;;;;;;;;;;5118662;28;20122;-67
2021/11/25 12:48:43;;;;;;;12.63;1.63;;;;;;;;;;5112414;28;20060;-67
2021/11/25 12:51:14;;;;;;;7.97;1.52;;;;;;;;;;5110159;28;20055;-66
2021/11/25 12:54:00;;;;;;;9.25;1.65;;;;;;;;;;5123750;28;20051;-67
2021/11/25 12:56:34;;;;;;;14.07;2.60;;;;;;;;;;5122381;28;20035;-67
2021/11/25 12:59:00;;;;;;;9.30;1.38;;;;;;;;;;5099767;28;20108;-66
2021/11/25 13:01:28;;;;;;;9.60;1.45;;;;;;;;;;5116255;28;20044;-66
2021/11/25 13:03:59;;;;;;;10.05;1.80;;;;;;;;;;5105802;28;20036;-67
2021/11/25 13:06:25;;;;;;;13.82;2.25;;;;;;;;;;5120491;28;20044;-67
2021/11/25 13:08:51;;;;;;;8.68;1.38;;;;;;;;;;5113907;28;20078;-67
2021/11/25 13:11:24;;;;;;;5.15;1.35;;;;;;;;;;5123317;28;20084;-66
2021/11/25 13:13:52;;;;;;;5.53;1.23;;;;;;;;;;5124606;28;20047;-66
2021/11/25 13:16:19;;;;;;;8.63;1.58;;;;;;;;;;5097199;28;20052;-67
2021/11/25 13:18:51;;;;;;;7.22;1.92;;;;;;;;;;5124702;28;20047;-67
2021/11/25 13:21:29;;;;;;;6.18;1.10;;;;;;;;;;5109220;28;20051;-67
2021/11/25 13:23:55;;;;;;;5.18;1.00;;;;;;;;;;5108685;28;20051;-67
2021/11/25 13:26:21;;;;;;;3.50;0.85;;;;;;;;;;5126217;28;20071;-67
2021/11/25 13:28:52;;;;;;;11.15;1.35;;;;;;;;;;5110700;28;20457;-67
2021/11/25 13:31:20;;;;;;;6.80;1.30;;;;;;;;;;5087249;28;20047;-67
2021/11/25 13:34:04;;;;;;;10.23;1.48;;;;;;;;;;5120917;28;20069;-67
2021/11/25 13:36:51;;;;;;;6.22;1.17;;;;;;;;;;5107053;28;20520;-66
2021/11/25 13:39:25;;;;;;;8.85;1.92;;;;;;;;;;5092157;28;20455;-67
2021/11/25 13:41:57;;;;;;;6.10;1.15;;;;;;;;;;5100071;28;20078;-67
2021/11/25 13:44:24;;;;;;;5.65;1.75;;;;;;;;;;5118241;28;20040;-67
2021/11/25 13:46:52;;;;;;;5.40;1.52;;;;;;;;;;5104430;28;20075;-66
2021/11/25 13:49:19;;;;;;;11.73;1.90;;;;;;;;;;5115122;28;20050;-68
2021/11/25 13:51:46;;;;;;;12.23;2.20;;;;;;;;;;5126768;28;20043;-67
2021/11/25 13:54:20;;;;;;;13.63;1.85;;;;;;;;;;5126985;28;20058;-67
2021/11/25 13:56:47;;;;;;;16.23;2.22;;;;;;;;;;5106856;28;20059;-67
2021/11/25 13:59:16;;;;;;;8.88;2.28;;;;;;;;;;5124863;28;20047;-66
2021/11/25 14:01:44;;;;;;;9.43;1.90;;;;;;;;;;5126702;28;20051;-67
2021/11/25 14:04:11;;;;;;;16.00;2.30;;;;;;;;;;5122424;28;20044;-67
2021/11/25 14:06:37;;;;;;;11.07;1.63;;;;;;;;;;5111302;28;20288;-67
2021/11/25 14:09:14;;;;;;;10.13;1.70;;;;;;;;;;5126934;28;20077;-67
2021/11/25 14:12:01;;;;;;;11.90;2.17;;;;;;;;;;5126091;28;20039;-67
2021/11/25 14:14:33;;;;;;;15.77;2.45;;;;;;;;;;5126275;28;20063;-67
2021/11/25 14:17:00;;;;;;;8.82;1.75;;;;;;;;;;5106463;28;20047;-67
2021/11/25 14:19:27;;;;;;;8.98;2.47;;;;;;;;;;5107612;28;20083;-66
2021/11/25 14:21:58;;;;;;;9.67;1.53;;;;;;;;;;5112119;28;20103;-66
2021/11/25 14:24:29;;;;;;;11.48;2.00;;;;;;;;;;5126574;28;20055;-67
2021/11/25 14:30:04;;;;;;;13.25;1.55;;;;;;;;;;5102809;28;20052;-66
2021/11/25 14:32:58;;;;;;;7.28;1.60;;;;;;;;;;5043856;28;20061;-66
2021/11/25 14:35:24;;;;;;;10.88;1.80;;;;;;;;;;5066859;28;20056;-67